Terminal Aerodrome Forecast
Issued by NWS Newport/Morehead City, NC

Home | Current Version | Previous Version | Graphics & Text | Print | Product List | Glossary On
Versions: 1 2 3 4 5 6 7 8 9 10 11 12 13 14 15
000
FTUS42 KMHX 232323
TAFEWN
TAF
KEWN 232323Z 2400/2424 04004KT P6SM FEW050 SCT250
     FM240800 VRB04KT P6SM SCT020
     FM241400 04007G16KT P6SM SCT040=

USA.gov is the U.S. government's official web portal to all federal, state and local government web resources and services.